Time;durP1;ratioP1;P1;durP2;ratioP2;P2;SDS_P1;SDS_P2;PMS_P1;PMS_P2;Temp;Humidity;BMP_temperature;BMP_pressure;BME280_temperature;BME280_humidity;BME280_pressure;Samples;Min_cycle;Max_cycle;Signal;HPM_P1;HPM_P2
2022/08/27 00:01:45;;;;;;;12.70;6.20;;;;;;;21.17;72.80;100236.34;5089363;28;20497;-71
2022/08/27 00:04:13;;;;;;;10.80;7.03;;;;;;;20.90;73.60;100230.94;5092978;28;20500;-70
2022/08/27 00:06:39;;;;;;;14.73;7.67;;;;;;;21.19;72.86;100221.47;5084688;28;20539;-70
2022/08/27 00:09:06;;;;;;;13.90;7.23;;;;;;;21.21;72.65;100229.44;5082373;28;20451;-70
2022/08/27 00:11:33;;;;;;;12.23;7.17;;;;;;;21.11;72.94;100224.44;5079909;28;20476;-70
2022/08/27 00:14:00;;;;;;;15.20;7.60;;;;;;;21.21;72.46;100226.72;5082041;28;20476;-69
2022/08/27 00:16:26;;;;;;;9.83;7.13;;;;;;;21.08;72.96;100218.59;5096990;28;21016;-68
2022/08/27 00:18:55;;;;;;;14.43;7.43;;;;;;;20.99;73.02;100215.25;5099273;28;20459;-69
2022/08/27 00:21:25;;;;;;;17.60;7.20;;;;;;;20.77;73.78;100212.72;5098688;28;20475;-69
2022/08/27 00:23:51;;;;;;;14.87;7.70;;;;;;;20.61;74.44;100203.09;5084791;28;20547;-67
2022/08/27 00:26:18;;;;;;;12.17;6.40;;;;;;;20.79;74.06;100205.19;5096919;28;20884;-69
2022/08/27 00:28:46;;;;;;;11.90;6.77;;;;;;;20.81;74.16;100205.00;5099763;28;20499;-70
2022/08/27 00:31:13;;;;;;;13.80;7.00;;;;;;;20.75;74.07;100203.13;5083984;28;20855;-70
2022/08/27 00:33:40;;;;;;;11.73;6.43;;;;;;;20.86;73.74;100205.22;5080953;28;20479;-70
2022/08/27 00:36:07;;;;;;;15.17;7.57;;;;;;;20.72;74.07;100217.13;5081776;28;20471;-69
2022/08/27 00:38:37;;;;;;;11.73;8.00;;;;;;;20.58;74.69;100203.50;5094205;28;20451;-70
2022/08/27 00:41:04;;;;;;;11.73;7.40;;;;;;;20.84;73.68;100207.31;5080418;28;20475;-70
2022/08/27 00:43:44;;;;;;;11.07;6.03;;;;;;;20.77;73.68;100212.72;5081756;28;20512;-70
2022/08/27 00:46:18;;;;;;;17.13;7.50;;;;;;;20.87;73.19;100215.03;5083872;28;20985;-70
2022/08/27 00:48:45;;;;;;;13.00;5.90;;;;;;;20.87;73.30;100215.88;5096327;28;20436;-69
2022/08/27 00:51:12;;;;;;;18.60;7.40;;;;;;;21.02;72.92;100218.38;5099661;28;20455;-70
2022/08/27 00:53:40;;;;;;;14.03;7.97;;;;;;;20.54;74.76;100225.88;5097681;28;20455;-70
2022/08/27 00:56:11;;;;;;;14.37;6.97;;;;;;;20.56;74.65;100223.78;5098782;28;20487;-69
2022/08/27 00:58:41;;;;;;;12.17;6.60;;;;;;;20.80;73.55;100217.75;5086880;28;20511;-70
2022/08/27 01:01:11;;;;;;;11.00;6.80;;;;;;;20.84;73.75;100224.44;5088688;28;20480;-69
2022/08/27 01:03:38;;;;;;;13.80;6.00;;;;;;;20.80;73.84;100215.03;5098804;28;20470;-69
2022/08/27 01:06:06;;;;;;;13.80;7.07;;;;;;;20.87;73.47;100226.75;5084269;28;20494;-68
2022/08/27 01:08:36;;;;;;;13.50;7.23;;;;;;;20.79;73.93;100217.97;5099841;28;20497;-70
2022/08/27 01:11:05;;;;;;;13.10;7.57;;;;;;;20.78;73.87;100217.13;5079688;28;20495;-69
2022/08/27 01:13:33;;;;;;;15.47;7.70;;;;;;;20.74;73.68;100220.47;5093062;28;20461;-71
2022/08/27 01:16:00;;;;;;;18.80;7.70;;;;;;;20.39;75.28;100226.03;5085500;28;20473;-70
2022/08/27 01:18:27;;;;;;;17.47;7.83;;;;;;;20.69;73.89;100221.94;5080027;28;20509;-69
2022/08/27 01:20:57;;;;;;;20.40;7.70;;;;;;;20.53;74.20;100221.47;5101487;28;20478;-70
2022/08/27 01:23:27;;;;;;;13.90;7.30;;;;;;;20.58;74.32;100217.06;5103189;28;20474;-69
2022/08/27 01:25:56;;;;;;;12.93;7.20;;;;;;;20.34;74.98;100218.50;5097599;28;20475;-69
2022/08/27 01:28:23;;;;;;;14.27;7.40;;;;;;;20.27;75.08;100223.06;5091361;28;20515;-70
2022/08/27 01:30:49;;;;;;;11.47;6.77;;;;;;;20.61;74.19;100226.72;5100550;28;20477;-71
2022/08/27 01:33:18;;;;;;;11.30;6.43;;;;;;;19.95;76.27;100220.06;5099621;28;20501;-71
2022/08/27 01:35:47;;;;;;;13.10;8.10;;;;;;;20.35;74.90;100230.22;5096968;28;20498;-71
2022/08/27 01:38:15;;;;;;;10.60;6.50;;;;;;;20.27;74.88;100240.19;5097195;28;20432;-71
2022/08/27 01:40:42;;;;;;;12.80;7.30;;;;;;;20.05;75.89;100230.50;5092018;28;20462;-70
2022/08/27 01:43:10;;;;;;;11.40;7.70;;;;;;;20.10;75.30;100228.03;5101121;28;20435;-70
2022/08/27 01:45:39;;;;;;;16.17;6.67;;;;;;;20.26;75.38;100229.56;5102410;28;20473;-70
2022/08/27 01:48:06;;;;;;;15.37;7.47;;;;;;;20.41;74.26;100226.66;5100608;28;20455;-71
2022/08/27 01:50:36;;;;;;;14.60;7.07;;;;;;;20.33;73.98;100224.97;5101424;28;20487;-70
2022/08/27 01:53:05;;;;;;;16.67;5.80;;;;;;;20.28;74.14;100231.03;5103189;28;20444;-69
2022/08/27 01:55:31;;;;;;;15.40;6.00;;;;;;;20.34;74.05;100233.94;5086782;28;20511;-70
2022/08/27 01:57:58;;;;;;;15.33;6.40;;;;;;;20.00;75.15;100225.72;5102095;28;20477;-70
2022/08/27 02:00:30;;;;;;;8.93;6.00;;;;;;;19.89;75.66;100224.44;5095762;28;20549;-70
2022/08/27 02:02:58;;;;;;;10.87;5.13;;;;;;;20.05;74.89;100227.81;5083972;28;20440;-69
2022/08/27 02:05:26;;;;;;;12.93;5.60;;;;;;;20.32;73.86;100236.88;5089293;28;20543;-71
2022/08/27 02:07:53;;;;;;;13.50;5.77;;;;;;;20.23;73.99;100238.09;5083008;28;20427;-70
2022/08/27 02:10:22;;;;;;;9.27;6.27;;;;;;;19.74;75.37;100227.28;5093502;28;20447;-71
2022/08/27 02:12:49;;;;;;;11.13;5.70;;;;;;;20.12;74.26;100231.41;5102570;28;20504;-71
2022/08/27 02:15:17;;;;;;;10.33;5.90;;;;;;;19.94;74.66;100227.34;5095285;28;20471;-72
2022/08/27 02:17:45;;;;;;;14.80;5.57;;;;;;;20.06;74.60;100230.31;5102701;28;20423;-71
2022/08/27 02:20:12;;;;;;;8.67;5.50;;;;;;;19.53;76.39;100227.34;5086427;28;20517;-72
2022/08/27 02:22:39;;;;;;;7.37;5.43;;;;;;;20.20;74.50;100233.09;5094987;28;20443;-70
2022/08/27 02:25:08;;;;;;;9.37;5.67;;;;;;;20.16;74.37;100221.81;5096820;28;20514;-68
2022/08/27 02:27:35;;;;;;;10.50;5.00;;;;;;;20.37;73.73;100226.22;5089732;28;20442;-69
2022/08/27 02:30:02;;;;;;;13.07;5.73;;;;;;;20.22;74.01;100233.72;5099108;28;20957;-71
2022/08/27 02:32:28;;;;;;;18.97;6.03;;;;;;;20.25;74.09;100227.88;5101974;28;20483;-70
2022/08/27 02:34:56;;;;;;;10.10;5.00;;;;;;;20.30;73.99;100231.66;5100494;28;20919;-71
2022/08/27 02:37:23;;;;;;;8.63;5.03;;;;;;;20.38;73.54;100232.50;5090014;28;20514;-71
2022/08/27 02:39:50;;;;;;;12.47;5.07;;;;;;;20.32;73.53;100229.56;5093026;28;20463;-69
2022/08/27 02:42:16;;;;;;;10.33;5.07;;;;;;;20.06;74.32;100235.75;5096963;28;20479;-71
2022/08/27 02:44:43;;;;;;;12.17;5.47;;;;;;;20.29;73.33;100238.13;5087363;28;20471;-71
2022/08/27 02:47:10;;;;;;;10.37;5.13;;;;;;;20.04;73.90;100232.41;5095030;28;20601;-72
2022/08/27 02:49:37;;;;;;;6.93;4.13;;;;;;;20.01;74.18;100231.97;5085435;28;20527;-73
2022/08/27 02:52:05;;;;;;;11.50;4.73;;;;;;;19.83;74.32;100236.06;5088116;28;20476;-73
2022/08/27 02:54:32;;;;;;;12.90;4.80;;;;;;;19.90;74.23;100233.41;5090071;28;20455;-73
2022/08/27 02:56:59;;;;;;;11.53;4.70;;;;;;;20.16;73.11;100237.25;5101662;28;20502;-73
2022/08/27 02:59:25;;;;;;;10.90;4.60;;;;;;;19.80;74.11;100233.75;5094712;28;20444;-74
2022/08/27 03:01:52;;;;;;;12.87;4.20;;;;;;;20.11;73.17;100235.16;5086054;28;20478;-72
2022/08/27 03:04:19;;;;;;;9.87;4.37;;;;;;;20.10;73.06;100242.47;5087017;28;20431;-73
2022/08/27 03:06:47;;;;;;;13.40;5.47;;;;;;;19.54;74.65;100234.44;5098670;28;20486;-70
2022/08/27 03:09:15;;;;;;;5.27;3.70;;;;;;;19.89;73.99;100246.13;5091246;28;20493;-71
2022/08/27 03:11:42;;;;;;;5.93;3.90;;;;;;;20.01;73.21;100240.13;5092872;28;21052;-71
2022/08/27 03:14:08;;;;;;;11.37;3.20;;;;;;;19.84;73.14;100243.19;5082207;28;20544;-70
2022/08/27 03:16:36;;;;;;;10.60;3.53;;;;;;;19.77;74.29;100238.75;5098309;28;20582;-72
2022/08/27 03:19:02;;;;;;;8.23;3.33;;;;;;;19.88;73.63;100246.34;5100587;28;21232;-72
2022/08/27 03:21:29;;;;;;;9.77;3.63;;;;;;;20.05;72.93;100241.38;5093122;28;20841;-71
2022/08/27 03:23:55;;;;;;;9.67;3.03;;;;;;;20.08;72.25;100244.50;5088154;28;20455;-71
2022/08/27 03:26:23;;;;;;;11.37;3.00;;;;;;;20.06;72.60;100245.78;5100543;28;20482;-71
2022/08/27 03:28:50;;;;;;;6.83;2.83;;;;;;;19.90;72.74;100245.06;5098751;28;20479;-70
2022/08/27 03:31:25;;;;;;;8.47;3.83;;;;;;;19.89;72.66;100237.13;5099518;28;21058;-72
2022/08/27 03:33:52;;;;;;;8.07;3.00;;;;;;;20.08;72.15;100238.25;5100495;28;20442;-71
2022/08/27 03:36:19;;;;;;;6.13;3.10;;;;;;;20.15;71.93;100241.81;5089758;28;20506;-71
2022/08/27 03:38:46;;;;;;;11.67;2.97;;;;;;;20.19;71.31;100234.97;5089337;28;20462;-72
2022/08/27 03:41:13;;;;;;;9.30;2.40;;;;;;;20.20;71.55;100249.38;5098189;28;20497;-72
2022/08/27 03:43:41;;;;;;;4.30;2.57;;;;;;;20.16;71.30;100237.25;5092508;28;20432;-69
2022/08/27 03:46:08;;;;;;;12.47;2.93;;;;;;;20.01;71.24;100237.41;5082184;28;20729;-70
2022/08/27 03:48:35;;;;;;;3.80;2.53;;;;;;;19.81;72.48;100242.72;5084616;28;20837;-72
2022/08/27 03:51:05;;;;;;;5.87;2.80;;;;;;;19.60;72.28;100236.34;5091061;28;20501;-70
2022/08/27 03:53:32;;;;;;;6.17;2.20;;;;;;;19.89;71.96;100246.13;5087426;28;20447;-72
2022/08/27 03:55:59;;;;;;;5.97;2.07;;;;;;;20.03;71.45;100255.16;5081191;28;21158;-71
2022/08/27 03:58:26;;;;;;;7.57;2.43;;;;;;;19.92;71.15;100253.84;5082445;28;20784;-71
2022/08/27 04:00:54;;;;;;;6.23;2.07;;;;;;;19.93;70.99;100250.09;5096201;28;20996;-72
2022/08/27 04:03:21;;;;;;;8.50;2.50;;;;;;;19.74;71.52;100245.44;5086815;28;20476;-71
2022/08/27 04:05:52;;;;;;;8.50;2.30;;;;;;;19.93;70.58;100250.09;5092461;28;20486;-70
2022/08/27 04:08:19;;;;;;;7.10;2.00;;;;;;;19.95;70.81;100249.91;5083554;28;20436;-73
2022/08/27 04:10:46;;;;;;;9.27;2.13;;;;;;;19.80;70.67;100251.91;5082615;28;20677;-71
2022/08/27 04:13:12;;;;;;;4.50;2.60;;;;;;;19.78;70.71;100252.13;5089032;28;20471;-70
2022/08/27 04:15:43;;;;;;;7.37;2.40;;;;;;;19.87;70.16;100250.06;5086357;28;20497;-71
2022/08/27 04:18:12;;;;;;;7.10;2.20;;;;;;;19.66;70.90;100253.69;5086920;28;20475;-71
2022/08/27 04:20:39;;;;;;;8.63;1.87;;;;;;;19.72;70.85;100256.44;5097036;28;20467;-71
2022/08/27 04:23:06;;;;;;;3.33;1.40;;;;;;;19.82;70.27;100256.09;5098548;28;20458;-70
2022/08/27 04:25:33;;;;;;;8.10;1.97;;;;;;;19.58;70.90;100251.97;5099942;28;20463;-71
2022/08/27 04:27:59;;;;;;;5.60;1.90;;;;;;;19.70;70.50;100254.94;5099600;28;20474;-70
2022/08/27 04:30:26;;;;;;;6.33;1.90;;;;;;;19.72;70.81;100256.44;5087662;28;20536;-70
2022/08/27 04:32:53;;;;;;;4.50;1.50;;;;;;;19.86;70.11;100261.94;5092694;28;20503;-69
2022/08/27 04:35:21;;;;;;;3.20;1.60;;;;;;;20.01;69.35;100259.94;5084389;28;20478;-70
2022/08/27 04:37:47;;;;;;;4.73;1.70;;;;;;;19.97;69.27;100266.00;5092287;28;20463;-71
2022/08/27 04:40:14;;;;;;;11.20;1.80;;;;;;;19.71;70.13;100267.50;5080741;28;20515;-72
2022/08/27 04:42:41;;;;;;;6.10;1.90;;;;;;;19.82;69.73;100256.09;5088429;28;20997;-70
2022/08/27 04:45:09;;;;;;;5.97;2.37;;;;;;;19.69;69.83;100253.31;5096099;28;20443;-70
2022/08/27 04:47:35;;;;;;;8.50;1.83;;;;;;;19.72;70.37;100255.59;5100716;28;20939;-71
2022/08/27 04:50:02;;;;;;;5.10;1.60;;;;;;;19.93;69.43;100262.84;5100069;28;20494;-71
2022/08/27 04:52:30;;;;;;;6.70;1.70;;;;;;;19.93;69.24;100271.81;5095940;28;20476;-69
2022/08/27 04:54:57;;;;;;;5.03;1.80;;;;;;;19.94;69.11;100259.06;5090276;28;20540;-72
2022/08/27 04:57:24;;;;;;;4.07;2.27;;;;;;;19.99;69.29;100261.19;5083837;28;20501;-71
2022/08/27 04:59:51;;;;;;;4.60;1.60;;;;;;;19.98;69.17;100263.06;5093153;28;20448;-69
2022/08/27 05:02:17;;;;;;;7.90;1.87;;;;;;;19.97;69.41;100258.69;5084056;28;20475;-71
2022/08/27 05:04:44;;;;;;;6.00;1.50;;;;;;;20.00;68.96;100260.13;5097917;28;20442;-69
2022/08/27 05:07:11;;;;;;;4.80;1.40;;;;;;;19.99;69.00;100263.91;5098017;28;20483;-70
2022/08/27 05:09:40;;;;;;;5.27;1.80;;;;;;;19.99;68.92;100269.34;5092622;28;20455;-69
2022/08/27 05:12:07;;;;;;;7.37;1.97;;;;;;;20.10;68.18;100269.59;5074147;28;20475;-69
2022/08/27 05:14:34;;;;;;;3.47;1.40;;;;;;;19.85;69.13;100266.56;5081993;28;20503;-71
2022/08/27 05:17:02;;;;;;;8.60;1.83;;;;;;;19.69;69.55;100264.16;5082601;28;20479;-68
2022/08/27 05:19:28;;;;;;;7.20;2.10;;;;;;;19.81;69.13;100254.44;5083777;28;20450;-71
2022/08/27 05:21:55;;;;;;;4.90;1.83;;;;;;;19.89;68.97;100258.84;5097456;28;20466;-70
2022/08/27 05:24:23;;;;;;;5.67;2.07;;;;;;;19.89;68.98;100264.25;5093624;28;20447;-69
2022/08/27 05:26:51;;;;;;;3.17;1.33;;;;;;;19.85;69.18;100263.00;5094649;28;20505;-69
2022/08/27 05:29:18;;;;;;;8.60;1.93;;;;;;;19.81;68.79;100270.72;5090752;28;20543;-69
2022/08/27 05:31:46;;;;;;;5.33;1.40;;;;;;;19.81;68.74;100268.00;5079012;28;20474;-65
2022/08/27 05:34:13;;;;;;;2.17;1.37;;;;;;;19.87;68.34;100264.47;5097159;28;20434;-68
2022/08/27 05:36:40;;;;;;;6.33;1.67;;;;;;;19.93;68.33;100268.28;5093171;28;20547;-68
2022/08/27 05:39:07;;;;;;;8.10;1.90;;;;;;;19.75;68.38;100260.66;5083212;28;20452;-66
2022/08/27 05:41:35;;;;;;;6.60;1.63;;;;;;;19.76;68.47;100259.63;5082683;28;20484;-66
2022/08/27 05:44:05;;;;;;;7.83;1.43;;;;;;;19.89;67.85;100258.84;5102325;28;20486;-66
2022/08/27 05:46:32;;;;;;;5.47;1.50;;;;;;;20.05;67.62;100272.09;5100590;28;20996;-67
2022/08/27 05:49:00;;;;;;;6.73;1.93;;;;;;;20.05;66.65;100265.78;5103957;28;20461;-68
2022/08/27 05:51:30;;;;;;;4.80;1.33;;;;;;;20.20;66.43;100262.94;5098130;28;20485;-67
2022/08/27 05:53:58;;;;;;;8.77;1.83;;;;;;;20.29;66.49;100265.28;5082743;28;20463;-67
2022/08/27 05:56:28;;;;;;;2.23;0.90;;;;;;;20.12;65.97;100269.41;5093119;28;20534;-67
2022/08/27 06:01:42;;;;;;;9.30;1.93;;;;;;;20.15;65.81;100258.13;5075125;28;20491;-67
2022/08/27 06:04:09;;;;;;;5.73;1.67;;;;;;;20.01;65.88;100261.81;5086686;28;20855;-66
2022/08/27 06:06:37;;;;;;;5.27;1.30;;;;;;;19.99;66.26;100270.16;5081805;28;20483;-67
2022/08/27 06:09:04;;;;;;;5.17;1.53;;;;;;;20.07;65.70;100270.00;5083327;28;21047;-65
2022/08/27 06:11:31;;;;;;;7.53;1.67;;;;;;;19.85;66.41;100268.44;5085658;28;20602;-66
2022/08/27 06:13:58;;;;;;;6.47;1.47;;;;;;;19.99;66.03;100283.72;5086463;28;20471;-68
2022/08/27 06:16:24;;;;;;;3.30;1.27;;;;;;;20.07;66.16;100286.28;5095728;28;20478;-66
2022/08/27 06:18:53;;;;;;;7.77;1.90;;;;;;;20.12;65.76;100286.50;5100835;28;20450;-67
2022/08/27 06:21:21;;;;;;;6.87;1.73;;;;;;;20.01;65.57;100284.34;5094383;28;20679;-68
2022/08/27 06:23:48;;;;;;;7.20;1.67;;;;;;;20.05;65.84;100279.38;5101525;28;20503;-66
2022/08/27 06:26:18;;;;;;;5.37;1.40;;;;;;;19.98;65.74;100271.22;5097587;28;20482;-67
2022/08/27 06:28:44;;;;;;;7.00;1.80;;;;;;;19.81;66.12;100278.00;5087747;28;20475;-67
2022/08/27 06:31:14;;;;;;;3.03;1.23;;;;;;;20.04;65.38;100273.09;5092453;28;20545;-68
2022/08/27 06:33:41;;;;;;;5.07;1.33;;;;;;;19.89;65.12;100270.56;5082640;28;20448;-66
2022/08/27 06:36:11;;;;;;;3.80;1.27;;;;;;;20.21;64.47;100276.31;5081364;28;20502;-67
2022/08/27 06:38:38;;;;;;;4.20;1.50;;;;;;;20.31;64.60;100278.63;5062304;28;20742;-67
2022/08/27 06:41:06;;;;;;;7.00;1.63;;;;;;;20.31;64.54;100278.63;5063854;28;20473;-66
2022/08/27 06:43:34;;;;;;;3.87;1.33;;;;;;;20.29;64.55;100284.28;5102522;28;20782;-67
2022/08/27 06:46:02;;;;;;;8.60;1.43;;;;;;;20.62;63.52;100290.88;5101478;28;20478;-67
2022/08/27 06:48:29;;;;;;;4.00;1.60;;;;;;;20.57;63.19;100282.47;5091458;28;20532;-67
2022/08/27 06:50:55;;;;;;;5.53;1.67;;;;;;;20.48;63.66;100293.53;5102032;28;20508;-67
2022/08/27 06:53:23;;;;;;;4.07;1.33;;;;;;;20.30;64.04;100291.38;5101916;28;20462;-67
2022/08/27 06:55:50;;;;;;;4.67;1.37;;;;;;;20.45;63.75;100290.38;5097687;28;20476;-67
2022/08/27 06:58:18;;;;;;;7.07;1.50;;;;;;;20.59;63.65;100294.81;5086150;28;20523;-67
2022/08/27 07:00:44;;;;;;;7.03;1.60;;;;;;;20.84;62.68;100296.97;5081524;28;20988;-68
2022/08/27 07:03:12;;;;;;;5.73;1.93;;;;;;;20.97;62.51;100305.16;5081460;28;20432;-67
2022/08/27 07:05:40;;;;;;;3.63;1.10;;;;;;;20.99;62.08;100303.06;5085628;28;20474;-67
2022/08/27 07:08:08;;;;;;;8.90;1.90;;;;;;;20.95;61.81;100301.78;5100175;28;20972;-67
2022/08/27 07:10:36;;;;;;;4.40;1.40;;;;;;;20.91;61.81;100305.16;5101412;28;20501;-67
2022/08/27 07:13:03;;;;;;;6.57;1.67;;;;;;;20.60;63.16;100304.63;5094352;28;20436;-68
2022/08/27 07:15:30;;;;;;;4.53;1.90;;;;;;;20.53;63.21;100300.22;5080970;28;20506;-66
2022/08/27 07:17:57;;;;;;;3.73;1.30;;;;;;;20.54;63.75;100310.88;5080883;28;20460;-66
2022/08/27 07:20:24;;;;;;;5.43;1.27;;;;;;;20.66;63.23;100306.56;5081286;28;20451;-67
2022/08/27 07:22:53;;;;;;;3.87;1.40;;;;;;;20.77;63.09;100296.97;5098983;28;20440;-66
2022/08/27 07:25:20;;;;;;;4.63;1.60;;;;;;;20.51;63.64;100314.00;5078813;28;20466;-66
2022/08/27 07:27:48;;;;;;;5.43;1.50;;;;;;;20.63;63.39;100306.97;5081007;28;20471;-67
2022/08/27 07:30:16;;;;;;;3.30;1.60;;;;;;;20.62;63.25;100312.59;5080250;28;20455;-67
2022/08/27 07:32:43;;;;;;;5.00;1.57;;;;;;;20.00;65.52;100311.69;5081593;28;20428;-67
2022/08/27 07:35:10;;;;;;;5.37;1.50;;;;;;;20.48;64.32;100311.69;5085257;28;20467;-67
2022/08/27 07:37:37;;;;;;;5.57;1.70;;;;;;;20.50;63.48;100317.75;5083608;28;20466;-67
2022/08/27 07:40:05;;;;;;;6.10;1.60;;;;;;;20.50;63.73;100312.31;5090501;28;20501;-67
2022/08/27 07:45:17;;;;;;;7.90;1.60;;;;;;;20.49;63.60;100325.06;5084478;28;20458;-67
2022/08/27 07:47:45;;;;;;;6.30;1.73;;;;;;;20.62;63.25;100321.59;5086329;28;20476;-67
2022/08/27 07:50:12;;;;;;;4.60;1.73;;;;;;;20.32;64.47;100321.03;5086788;28;20443;-67
2022/08/27 07:52:38;;;;;;;4.53;2.30;;;;;;;20.43;63.73;100323.19;5064560;28;20498;-67
2022/08/27 07:55:06;;;;;;;9.10;1.73;;;;;;;20.37;64.03;100320.44;5070713;28;20460;-68
2022/08/27 07:57:33;;;;;;;8.23;1.47;;;;;;;20.07;65.58;100323.44;5068986;28;20451;-67
2022/08/27 07:59:59;;;;;;;4.10;1.67;;;;;;;20.25;64.96;100329.16;5070327;28;20458;-67
2022/08/27 08:02:29;;;;;;;5.83;1.93;;;;;;;20.40;64.44;100333.63;5080057;28;21068;-68
2022/08/27 08:04:56;;;;;;;4.37;1.60;;;;;;;20.41;64.50;100338.81;5086604;28;20443;-68
2022/08/27 08:07:23;;;;;;;6.63;2.00;;;;;;;20.26;65.32;100336.28;5088684;28;20483;-67
2022/08/27 08:09:50;;;;;;;5.40;1.73;;;;;;;20.16;67.05;100338.53;5080599;28;20460;-67
2022/08/27 08:12:17;;;;;;;5.50;1.90;;;;;;;20.08;68.88;100342.22;5077137;28;20484;-66
2022/08/27 08:14:44;;;;;;;7.50;2.00;;;;;;;20.10;70.15;100336.59;5073399;28;20461;-65
2022/08/27 08:17:11;;;;;;;9.60;2.23;;;;;;;20.21;71.14;100348.78;5082633;28;20476;-68
2022/08/27 08:19:40;;;;;;;3.13;1.50;;;;;;;20.13;71.38;100347.88;5086943;28;20467;-66
2022/08/27 08:22:08;;;;;;;7.10;1.77;;;;;;;20.01;72.39;100351.38;5087617;28;20472;-66
2022/08/27 08:24:35;;;;;;;3.60;1.50;;;;;;;20.13;71.93;100358.75;5091503;28;20456;-67
2022/08/27 08:27:02;;;;;;;4.47;2.03;;;;;;;19.75;73.85;100355.59;5085848;28;20478;-66
2022/08/27 08:29:28;;;;;;;6.37;1.90;;;;;;;19.78;73.89;100360.63;5081719;28;20439;-67
2022/08/27 08:31:55;;;;;;;6.83;2.40;;;;;;;19.53;75.55;100358.34;5088634;28;20482;-67
2022/08/27 08:34:22;;;;;;;4.53;2.13;;;;;;;19.83;74.93;100360.03;5085463;28;20897;-67
2022/08/27 08:36:50;;;;;;;3.03;2.00;;;;;;;19.93;75.64;100363.25;5083751;28;20491;-67
2022/08/27 08:39:18;;;;;;;3.50;2.10;;;;;;;20.02;74.29;100366.63;5089554;28;20853;-65
2022/08/27 08:41:49;;;;;;;4.20;2.27;;;;;;;19.98;75.67;100365.34;5102571;28;20538;-68
2022/08/27 08:44:22;;;;;;;6.43;2.10;;;;;;;20.15;74.65;100363.97;5100907;28;20935;-66
2022/08/27 08:46:52;;;;;;;4.87;2.23;;;;;;;19.88;75.38;100369.25;5083712;28;21145;-66
2022/08/27 08:49:31;;;;;;;3.43;1.90;;;;;;;19.78;74.44;100365.22;5092956;28;20431;-66
2022/08/27 08:52:07;;;;;;;4.70;2.30;;;;;;;19.80;75.45;100366.69;5090028;28;20478;-67
2022/08/27 08:54:34;;;;;;;3.20;2.13;;;;;;;19.65;75.40;100363.22;5102380;28;20472;-65
2022/08/27 08:57:05;;;;;;;4.67;2.23;;;;;;;19.48;75.70;100363.50;5091193;28;20486;-67
2022/08/27 08:59:35;;;;;;;8.03;2.43;;;;;;;19.44;76.43;100372.22;5089773;28;20530;-66
2022/08/27 09:02:02;;;;;;;7.23;2.77;;;;;;;19.33;76.71;100371.72;5092504;28;20459;-67
2022/08/27 09:04:29;;;;;;;5.47;2.07;;;;;;;18.87;77.92;100376.69;5095173;28;20427;-65
2022/08/27 09:07:00;;;;;;;3.57;2.50;;;;;;;19.12;78.60;100369.88;5086678;28;20506;-67
2022/08/27 09:09:32;;;;;;;6.20;2.80;;;;;;;19.06;79.76;100377.91;5096384;28;20444;-66
2022/08/27 09:12:00;;;;;;;4.10;2.53;;;;;;;19.05;78.06;100371.66;5084810;28;20486;-67
2022/08/27 09:14:34;;;;;;;7.60;3.00;;;;;;;19.10;78.62;100371.94;5087118;28;20439;-66
2022/08/27 09:17:01;;;;;;;7.23;2.60;;;;;;;19.06;79.40;100377.91;5085104;28;20471;-66
2022/08/27 09:19:28;;;;;;;5.57;2.60;;;;;;;19.10;78.49;100381.94;5081092;28;20466;-66
2022/08/27 09:22:00;;;;;;;3.40;2.30;;;;;;;19.03;78.35;100381.88;5098222;28;20475;-66
2022/08/27 09:24:33;;;;;;;4.83;2.60;;;;;;;19.02;78.46;100382.06;5088048;28;20459;-67
2022/08/27 09:27:00;;;;;;;6.57;2.97;;;;;;;18.91;79.83;100376.13;5083777;28;20502;-67
2022/08/27 09:29:29;;;;;;;7.63;2.80;;;;;;;19.06;78.62;100372.50;5085808;28;20466;-66
2022/08/27 09:31:57;;;;;;;3.80;2.30;;;;;;;19.05;78.73;100371.66;5087419;28;20474;-66
2022/08/27 09:34:26;;;;;;;4.30;2.37;;;;;;;19.09;78.12;100374.84;5091192;28;20451;-67
2022/08/27 09:37:07;;;;;;;7.20;2.80;;;;;;;19.04;78.30;100380.00;5068449;28;20571;-66
2022/08/27 09:39:46;;;;;;;3.30;2.57;;;;;;;19.12;77.65;100377.16;5073704;28;20453;-66
2022/08/27 09:42:23;;;;;;;5.10;2.47;;;;;;;19.04;77.79;100380.00;5079477;28;20499;-67
2022/08/27 09:44:53;;;;;;;4.03;2.70;;;;;;;18.93;79.05;100375.94;5088778;28;20473;-67
2022/08/27 09:47:20;;;;;;;5.77;2.73;;;;;;;18.91;78.55;100381.53;5082278;28;20570;-67
2022/08/27 09:49:47;;;;;;;9.13;3.27;;;;;;;18.77;79.81;100375.09;5086859;28;20447;-67
2022/08/27 09:52:31;;;;;;;4.10;3.00;;;;;;;18.98;78.32;100382.44;5082407;28;20483;-67
2022/08/27 09:54:58;;;;;;;7.53;3.20;;;;;;;18.70;80.54;100379.59;5082271;28;20974;-66
2022/08/27 09:57:35;;;;;;;5.87;3.40;;;;;;;18.84;80.84;100382.50;5082964;28;20475;-67
2022/08/27 10:00:02;;;;;;;5.37;3.50;;;;;;;18.93;80.04;100384.06;5084260;28;20483;-66
2022/08/27 10:02:29;;;;;;;7.33;3.40;;;;;;;19.03;79.63;100383.75;5094947;28;20480;-66
2022/08/27 10:04:58;;;;;;;6.97;3.07;;;;;;;19.12;79.52;100390.72;5086366;28;20531;-68
2022/08/27 10:07:38;;;;;;;9.07;3.60;;;;;;;19.22;79.66;100391.22;5081007;28;20483;-66
2022/08/27 10:10:13;;;;;;;4.50;3.73;;;;;;;19.23;78.50;100387.47;5090319;28;20512;-67
2022/08/27 10:12:48;;;;;;;10.23;4.53;;;;;;;19.13;79.44;100385.09;5082621;28;20455;-67
2022/08/27 10:15:16;;;;;;;7.57;3.53;;;;;;;19.18;79.10;100384.50;5082535;28;20439;-67
2022/08/27 10:17:49;;;;;;;6.67;3.03;;;;;;;19.38;78.59;100388.25;5099056;28;20474;-67
2022/08/27 10:20:18;;;;;;;5.43;3.40;;;;;;;19.23;78.46;100389.34;5099675;28;20466;-67
2022/08/27 10:22:54;;;;;;;9.57;3.93;;;;;;;19.28;78.47;100381.47;5084264;28;20482;-66
2022/08/27 10:25:31;;;;;;;8.17;4.33;;;;;;;19.19;78.34;100389.72;5100748;28;20469;-66
2022/08/27 10:28:06;;;;;;;8.87;3.63;;;;;;;19.39;78.64;100383.69;5102366;28;20474;-66
2022/08/27 10:30:48;;;;;;;5.10;3.60;;;;;;;19.33;78.59;100379.03;5096666;28;20463;-67
2022/08/27 10:33:25;;;;;;;9.27;4.23;;;;;;;19.53;77.62;100382.75;5088493;28;20432;-67
2022/08/27 10:35:58;;;;;;;8.03;3.33;;;;;;;19.61;77.25;100373.63;5083147;28;20483;-66
2022/08/27 10:38:34;;;;;;;8.83;3.27;;;;;;;19.65;77.09;100374.06;5097267;28;20866;-67
2022/08/27 10:41:05;;;;;;;8.80;3.40;;;;;;;19.37;77.77;100380.28;5091647;28;20747;-67
2022/08/27 10:44:00;;;;;;;5.83;3.33;;;;;;;19.40;78.02;100385.34;5101050;28;20537;-67
2022/08/27 10:46:46;;;;;;;7.80;3.90;;;;;;;19.54;78.13;100386.28;5092830;28;20480;-67
2022/08/27 10:49:18;;;;;;;6.23;3.00;;;;;;;19.79;76.94;100385.88;5098371;28;20443;-67
2022/08/27 10:51:49;;;;;;;10.60;3.77;;;;;;;19.82;75.61;100375.47;5093376;28;20483;-67
2022/08/27 10:54:23;;;;;;;7.03;3.33;;;;;;;19.96;75.56;100376.38;5085231;28;20888;-67
2022/08/27 10:56:53;;;;;;;10.83;3.70;;;;;;;19.99;75.22;100381.44;5081560;28;20475;-66
2022/08/27 10:59:28;;;;;;;9.27;3.10;;;;;;;20.09;75.50;100387.34;5082954;28;20432;-67
2022/08/27 11:02:01;;;;;;;9.47;3.90;;;;;;;20.16;75.64;100381.94;5081314;28;20506;-67
2022/08/27 11:04:31;;;;;;;7.70;3.80;;;;;;;20.32;75.60;100378.88;5088033;28;20497;-67
2022/08/27 11:07:01;;;;;;;10.87;3.30;;;;;;;20.26;73.91;100382.44;5101391;28;20489;-66
2022/08/27 11:09:35;;;;;;;5.63;3.20;;;;;;;20.08;74.19;100373.97;5086147;28;20451;-66
2022/08/27 11:12:08;;;;;;;7.97;3.80;;;;;;;20.28;74.04;100374.09;5093298;28;20485;-66
2022/08/27 11:14:37;;;;;;;5.97;3.43;;;;;;;20.32;72.80;100384.31;5096506;28;20448;-66
2022/08/27 11:17:06;;;;;;;11.77;3.80;;;;;;;20.39;73.23;100375.38;5087072;28;20476;-67
2022/08/27 11:19:43;;;;;;;12.03;3.23;;;;;;;20.68;72.53;100382.44;5081661;28;20432;-67
2022/08/27 11:22:15;;;;;;;10.00;3.20;;;;;;;20.55;71.77;100379.63;5092119;28;20471;-67
2022/08/27 11:24:47;;;;;;;8.43;3.03;;;;;;;20.85;71.76;100380.19;5087606;28;20956;-67
2022/08/27 11:27:17;;;;;;;8.17;2.70;;;;;;;20.93;70.19;100379.16;5081055;28;20472;-67
2022/08/27 11:29:46;;;;;;;10.30;3.00;;;;;;;21.27;70.09;100375.44;5081793;28;20514;-67
2022/08/27 11:32:18;;;;;;;4.33;2.90;;;;;;;21.42;70.41;100384.25;5080798;28;20478;-67
2022/08/27 11:34:50;;;;;;;8.20;3.27;;;;;;;21.70;67.51;100375.06;5081893;28;20428;-66